Time;durP1;ratioP1;P1;durP2;ratioP2;P2;SDS_P1;SDS_P2;PMS_P1;PMS_P2;Temp;Humidity;BMP_temperature;BMP_pressure;BME280_temperature;BME280_humidity;BME280_pressure;Samples;Min_cycle;Max_cycle;Signal;HPM_P1;HPM_P2
2022/12/06 00:01:51;;;;;;;4.63;4.07;;;5.70;99.90;;;;;;4950220;28;20031;-50
2022/12/06 00:04:16;;;;;;;4.00;3.60;;;5.80;99.90;;;;;;4950950;28;20050;-53
2022/12/06 00:06:46;;;;;;;5.10;4.15;;;5.70;99.90;;;;;;4950423;28;20456;-52
2022/12/06 00:09:21;;;;;;;3.65;3.35;;;5.70;99.90;;;;;;4951197;28;20133;-51
2022/12/06 00:11:47;;;;;;;3.60;3.15;;;5.70;99.90;;;;;;4950857;28;20168;-48
2022/12/06 00:14:13;;;;;;;3.65;3.25;;;5.70;99.90;;;;;;4973940;28;20031;-54
2022/12/06 00:16:38;;;;;;;4.30;3.75;;;5.70;99.90;;;;;;4970090;28;20038;-51
2022/12/06 00:19:04;;;;;;;4.05;3.10;;;5.70;99.90;;;;;;4969840;28;20081;-51
2022/12/06 00:21:33;;;;;;;3.55;3.03;;;5.80;99.90;;;;;;4973613;28;20058;-53
2022/12/06 00:24:11;;;;;;;3.72;3.30;;;5.80;99.90;;;;;;4972904;28;20487;-51
2022/12/06 00:26:39;;;;;;;4.65;3.35;;;5.80;99.90;;;;;;4973189;28;20034;-47
2022/12/06 00:29:06;;;;;;;6.00;3.00;;;5.70;99.90;;;;;;4973385;28;20034;-53
2022/12/06 00:31:33;;;;;;;3.47;3.25;;;5.80;99.90;;;;;;4972685;28;20030;-56
2022/12/06 00:33:59;;;;;;;4.53;4.13;;;5.80;99.90;;;;;;4972952;28;20053;-50
2022/12/06 00:36:31;;;;;;;5.72;4.35;;;5.80;99.90;;;;;;4973078;28;20081;-54
2022/12/06 00:39:01;;;;;;;4.32;3.58;;;5.80;99.90;;;;;;4973398;28;20049;-53
2022/12/06 00:41:26;;;;;;;7.63;4.53;;;5.80;99.90;;;;;;4973174;28;20050;-53
2022/12/06 00:43:52;;;;;;;5.07;4.25;;;5.80;99.90;;;;;;4972112;28;20019;-48
2022/12/06 00:46:21;;;;;;;4.18;3.78;;;5.80;99.90;;;;;;4972830;28;20031;-50
2022/12/06 00:48:47;;;;;;;4.40;3.83;;;5.90;99.90;;;;;;4987772;28;20122;-49
2022/12/06 00:51:15;;;;;;;7.65;3.90;;;5.90;99.90;;;;;;4972999;28;20031;-54
2022/12/06 00:53:41;;;;;;;4.70;4.30;;;5.80;99.90;;;;;;4972133;28;20027;-52
2022/12/06 00:56:08;;;;;;;3.80;3.45;;;5.70;99.90;;;;;;4970537;28;20042;-52
2022/12/06 00:58:33;;;;;;;4.13;3.72;;;5.70;99.90;;;;;;4953483;28;20043;-50
2022/12/06 01:01:08;;;;;;;4.10;3.70;;;5.70;99.90;;;;;;4953672;28;20031;-50
2022/12/06 01:03:34;;;;;;;4.03;3.65;;;5.60;99.90;;;;;;4952728;28;20023;-54
2022/12/06 01:06:03;;;;;;;4.53;4.13;;;5.70;99.90;;;;;;4953012;28;20045;-52
2022/12/06 01:08:29;;;;;;;3.92;3.33;;;5.70;99.90;;;;;;4953551;28;20035;-55
2022/12/06 01:10:54;;;;;;;4.50;4.00;;;5.80;99.90;;;;;;4968401;28;20030;-56
2022/12/06 01:13:20;;;;;;;4.50;4.10;;;5.80;99.90;;;;;;4952688;28;20030;-54
2022/12/06 01:15:45;;;;;;;4.20;3.80;;;5.70;99.90;;;;;;4952888;28;20027;-53
2022/12/06 01:18:11;;;;;;;3.83;3.53;;;5.70;99.90;;;;;;4953327;28;20031;-52
2022/12/06 01:20:36;;;;;;;6.43;4.00;;;5.70;99.90;;;;;;4969825;28;20038;-51
2022/12/06 01:23:02;;;;;;;5.03;3.97;;;5.80;99.90;;;;;;4971980;28;20444;-51
2022/12/06 01:25:29;;;;;;;4.50;3.53;;;5.80;99.90;;;;;;4972441;28;20046;-50
2022/12/06 01:27:55;;;;;;;4.82;3.80;;;5.80;99.90;;;;;;4972250;28;20479;-55
2022/12/06 01:30:20;;;;;;;6.13;5.15;;;5.70;99.90;;;;;;4994536;23;20061;-49
2022/12/06 01:32:46;;;;;;;8.93;3.85;;;5.70;99.90;;;;;;4972465;28;20019;-53
2022/12/06 01:35:11;;;;;;;4.82;3.50;;;5.70;99.90;;;;;;4974721;28;20058;-51
2022/12/06 01:37:37;;;;;;;4.43;3.90;;;5.70;99.90;;;;;;4974396;28;20105;-53
2022/12/06 01:40:03;;;;;;;4.82;3.35;;;5.60;99.90;;;;;;4974367;28;20415;-47
2022/12/06 01:42:28;;;;;;;3.80;3.15;;;5.60;99.90;;;;;;4973805;28;20026;-47
2022/12/06 01:44:57;;;;;;;6.43;3.85;;;5.60;99.90;;;;;;4974281;28;20399;-51
2022/12/06 01:47:27;;;;;;;4.65;3.97;;;5.60;99.90;;;;;;4972899;28;20117;-52
2022/12/06 01:50:20;;;;;;;4.93;3.30;;;5.60;99.90;;;;;;4975613;28;20027;-45
2022/12/06 01:53:05;;;;;;;5.35;3.45;;;5.50;99.90;;;;;;4974776;28;20402;-49
2022/12/06 01:55:35;;;;;;;3.63;3.33;;;5.50;99.90;;;;;;4976214;28;20479;-47
2022/12/06 01:58:14;;;;;;;3.17;2.97;;;5.50;99.90;;;;;;4974776;28;20089;-51
2022/12/06 02:00:40;;;;;;;3.03;2.65;;;5.50;99.90;;;;;;4975960;28;20024;-49
2022/12/06 02:03:15;;;;;;;3.78;2.83;;;5.50;99.90;;;;;;4975357;28;20040;-49
2022/12/06 02:05:41;;;;;;;2.88;2.67;;;5.60;99.90;;;;;;4976098;28;20038;-55
2022/12/06 02:08:08;;;;;;;2.70;2.15;;;5.60;99.90;;;;;;4975889;28;20030;-48
2022/12/06 02:10:35;;;;;;;2.70;2.50;;;5.60;99.90;;;;;;4975875;28;20027;-52
2022/12/06 02:13:00;;;;;;;2.40;2.20;;;5.60;99.90;;;;;;4975186;28;20077;-47
2022/12/06 02:15:39;;;;;;;2.85;2.40;;;5.60;99.90;;;;;;4975759;28;20019;-49
2022/12/06 02:18:37;;;;;;;2.70;2.50;;;5.50;99.90;;;;;;4975716;28;20047;-46
2022/12/06 02:21:28;;;;;;;2.88;2.67;;;5.60;99.90;;;;;;4952495;28;20057;-48
2022/12/06 02:24:18;;;;;;;2.92;2.67;;;5.50;99.90;;;;;;4975135;28;20030;-51
2022/12/06 02:27:03;;;;;;;3.28;2.42;;;5.50;99.90;;;;;;4975529;28;20037;-50
2022/12/06 02:29:53;;;;;;;2.53;2.33;;;5.50;99.90;;;;;;4975465;28;20027;-52
2022/12/06 02:32:38;;;;;;;2.88;2.65;;;5.50;99.90;;;;;;4980228;28;20027;-56
2022/12/06 02:35:12;;;;;;;2.80;2.60;;;5.40;99.90;;;;;;4983035;28;20407;-57
2022/12/06 02:37:51;;;;;;;5.75;2.35;;;5.50;99.90;;;;;;4981897;28;20466;-56
2022/12/06 02:40:27;;;;;;;2.75;2.53;;;5.50;99.90;;;;;;4974959;28;20027;-50
2022/12/06 02:42:57;;;;;;;2.63;2.42;;;5.60;99.90;;;;;;4974520;28;20034;-49
2022/12/06 02:45:37;;;;;;;2.58;2.38;;;5.60;99.90;;;;;;4974214;28;20026;-50
2022/12/06 02:48:06;;;;;;;3.10;2.88;;;5.60;99.90;;;;;;4975411;28;20081;-50
2022/12/06 02:50:37;;;;;;;3.22;2.60;;;5.70;99.90;;;;;;4990065;28;20062;-49
2022/12/06 02:53:06;;;;;;;3.20;3.00;;;5.60;99.90;;;;;;4974522;28;20194;-53
2022/12/06 02:55:33;;;;;;;2.72;2.53;;;5.60;99.90;;;;;;4975099;28;20058;-50
2022/12/06 02:57:58;;;;;;;2.60;2.40;;;5.60;99.90;;;;;;4989900;28;20414;-54
2022/12/06 03:00:38;;;;;;;2.33;2.13;;;5.60;99.90;;;;;;4974945;28;20107;-53
2022/12/06 03:03:22;;;;;;;3.25;2.58;;;5.50;99.90;;;;;;4974419;28;20030;-50
2022/12/06 03:06:02;;;;;;;2.67;2.47;;;5.40;99.90;;;;;;4975217;28;20415;-52
2022/12/06 03:09:04;;;;;;;2.97;2.75;;;5.40;99.90;;;;;;4974796;28;20102;-55
2022/12/06 03:11:55;;;;;;;2.53;2.30;;;5.50;99.90;;;;;;4974756;28;20027;-50
2022/12/06 03:14:27;;;;;;;17.65;2.90;;;5.40;99.90;;;;;;4975291;28;20027;-51
2022/12/06 03:17:06;;;;;;;2.63;2.42;;;5.50;99.90;;;;;;4973711;28;20065;-50
2022/12/06 03:19:34;;;;;;;4.80;2.85;;;5.40;99.90;;;;;;4974531;28;20035;-49
2022/12/06 03:22:05;;;;;;;3.33;2.97;;;5.40;99.90;;;;;;4973809;28;20442;-50
2022/12/06 03:24:34;;;;;;;4.50;2.70;;;5.50;99.90;;;;;;4974909;28;20411;-50
2022/12/06 03:27:03;;;;;;;3.20;2.90;;;5.40;99.90;;;;;;4974491;28;20027;-48
2022/12/06 03:29:32;;;;;;;2.75;2.55;;;5.40;99.90;;;;;;4973884;28;20409;-51
2022/12/06 03:32:01;;;;;;;3.42;2.75;;;5.30;99.90;;;;;;4973675;28;20031;-46
2022/12/06 03:34:32;;;;;;;3.35;2.80;;;5.40;99.90;;;;;;4974478;28;20023;-49
2022/12/06 03:36:58;;;;;;;3.63;2.50;;;5.40;99.90;;;;;;4974202;28;20457;-50
2022/12/06 03:39:37;;;;;;;2.65;2.45;;;5.40;99.90;;;;;;4974582;28;20031;-53
2022/12/06 03:42:03;;;;;;;3.20;2.90;;;5.50;99.90;;;;;;4972018;28;20023;-51
2022/12/06 03:44:29;;;;;;;3.45;3.03;;;5.50;99.90;;;;;;4974138;28;20405;-49
2022/12/06 03:47:05;;;;;;;2.97;2.67;;;5.50;99.90;;;;;;4971616;28;20129;-53
2022/12/06 03:49:50;;;;;;;2.83;2.63;;;5.50;99.90;;;;;;4974163;28;20031;-51
2022/12/06 03:52:16;;;;;;;2.50;2.33;;;5.50;99.90;;;;;;4972369;28;20117;-54
2022/12/06 03:54:41;;;;;;;2.95;2.75;;;5.40;99.90;;;;;;4973945;28;20106;-46
2022/12/06 03:57:08;;;;;;;3.25;2.60;;;5.40;99.90;;;;;;4973605;28;20023;-47
2022/12/06 03:59:33;;;;;;;2.92;2.72;;;5.40;99.90;;;;;;4973757;28;20054;-49
2022/12/06 04:01:59;;;;;;;3.08;2.78;;;5.40;99.90;;;;;;4972914;28;20034;-49
2022/12/06 04:04:24;;;;;;;2.72;2.53;;;5.40;99.90;;;;;;4973733;28;20050;-53
2022/12/06 04:06:50;;;;;;;3.10;2.85;;;5.30;99.90;;;;;;4973656;28;20094;-50
2022/12/06 04:12:00;;;;;;;3.83;3.03;;;5.20;99.90;;;;;;4972778;28;20156;-54
2022/12/06 04:14:31;;;;;;;3.00;2.80;;;5.30;99.90;;;;;;4973525;28;20031;-53
2022/12/06 04:19:44;;;;;;;8.20;3.13;;;5.30;99.90;;;;;;4973387;28;20115;-46
2022/12/06 04:24:53;;;;;;;7.10;2.75;;;5.30;99.90;;;;;;4973149;28;20037;-48
2022/12/06 04:40:59;;;;;;;3.83;2.72;;;5.30;99.90;;;;;;4973062;28;20101;-50
2022/12/06 04:43:43;;;;;;;3.10;2.78;;;5.20;99.90;;;;;;4972173;28;20046;-48
2022/12/06 04:46:10;;;;;;;2.63;2.42;;;5.30;99.90;;;;;;4972147;28;20023;-50
2022/12/06 04:48:36;;;;;;;2.72;2.38;;;5.10;99.90;;;;;;4972875;28;20475;-48
2022/12/06 04:51:02;;;;;;;3.42;2.92;;;5.20;99.90;;;;;;4972993;28;20153;-49
2022/12/06 04:53:27;;;;;;;3.38;2.90;;;5.20;99.90;;;;;;4972010;28;20098;-47
2022/12/06 04:55:53;;;;;;;3.20;3.00;;;5.20;99.90;;;;;;4972869;28;20439;-51
2022/12/06 04:58:19;;;;;;;3.28;2.95;;;5.10;99.90;;;;;;4972785;28;20479;-51
2022/12/06 05:00:44;;;;;;;3.10;2.80;;;5.20;99.90;;;;;;4972750;28;20027;-49
2022/12/06 05:03:11;;;;;;;4.18;2.75;;;5.20;99.90;;;;;;4971621;28;20026;-50
2022/12/06 05:05:36;;;;;;;2.67;2.47;;;5.20;99.90;;;;;;4973286;28;20030;-52
2022/12/06 05:08:03;;;;;;;2.63;2.42;;;5.30;99.90;;;;;;4972495;28;20447;-53
2022/12/06 05:10:28;;;;;;;3.05;2.20;;;5.40;99.90;;;;;;4987710;28;20114;-47
2022/12/06 05:12:54;;;;;;;2.85;2.63;;;5.40;99.90;;;;;;4971973;28;20107;-50
2022/12/06 05:15:19;;;;;;;2.42;2.30;;;5.30;99.90;;;;;;4972759;28;20035;-48
2022/12/06 05:17:45;;;;;;;2.55;2.40;;;5.30;99.90;;;;;;4972581;28;20062;-48
2022/12/06 05:20:13;;;;;;;3.20;2.90;;;5.30;99.90;;;;;;4972514;28;20031;-49
2022/12/06 05:22:38;;;;;;;3.40;2.70;;;5.40;99.90;;;;;;4971803;28;20084;-51
2022/12/06 05:25:04;;;;;;;3.08;2.75;;;5.40;99.90;;;;;;4972638;28;20027;-48
2022/12/06 05:27:30;;;;;;;3.25;2.95;;;5.30;99.90;;;;;;4971733;28;20086;-53
2022/12/06 05:29:55;;;;;;;3.30;3.00;;;5.30;99.90;;;;;;4972710;28;20451;-53
2022/12/06 05:32:21;;;;;;;2.22;2.13;;;5.20;99.90;;;;;;4972958;28;20441;-53
2022/12/06 05:34:46;;;;;;;2.83;2.63;;;5.30;99.90;;;;;;4972838;28;20585;-55
2022/12/06 05:37:12;;;;;;;5.00;3.58;;;5.40;99.90;;;;;;4972533;28;20117;-49
2022/12/06 05:39:37;;;;;;;3.47;2.83;;;5.30;99.90;;;;;;4972495;28;20035;-48
2022/12/06 05:42:03;;;;;;;2.90;2.70;;;5.30;99.90;;;;;;4971622;28;20037;-50
2022/12/06 05:44:28;;;;;;;3.20;2.90;;;5.20;99.90;;;;;;4972953;28;20552;-53
2022/12/06 05:46:54;;;;;;;3.35;3.00;;;5.30;99.90;;;;;;4971364;28;20029;-54
2022/12/06 05:49:19;;;;;;;4.20;3.10;;;5.40;99.90;;;;;;4972229;28;20034;-54
2022/12/06 05:51:45;;;;;;;3.00;2.80;;;5.30;99.90;;;;;;4972318;28;20022;-45
2022/12/06 05:54:11;;;;;;;5.15;2.58;;;5.30;99.90;;;;;;4971751;28;20034;-48
2022/12/06 05:56:38;;;;;;;2.88;2.67;;;5.40;99.90;;;;;;4972463;28;20400;-50
2022/12/06 05:59:04;;;;;;;3.40;2.78;;;5.30;99.90;;;;;;4972177;28;20027;-50
2022/12/06 06:01:30;;;;;;;3.08;2.70;;;5.30;99.90;;;;;;4972309;28;20090;-47
2022/12/06 06:03:55;;;;;;;3.03;2.72;;;5.30;99.90;;;;;;4969852;28;20502;-48
2022/12/06 06:06:22;;;;;;;3.60;3.30;;;5.30;99.90;;;;;;4972195;28;20029;-48
2022/12/06 06:08:48;;;;;;;3.45;3.15;;;5.20;99.90;;;;;;4972169;28;20436;-47
2022/12/06 06:11:14;;;;;;;4.72;2.67;;;5.10;99.90;;;;;;4987098;28;20488;-49
2022/12/06 06:13:39;;;;;;;3.33;3.03;;;5.20;99.90;;;;;;4971530;28;20030;-50
2022/12/06 06:16:05;;;;;;;4.65;2.97;;;5.20;99.90;;;;;;4975891;28;20073;-49
2022/12/06 06:18:31;;;;;;;3.58;3.28;;;5.20;99.90;;;;;;4990422;28;20018;-48
2022/12/06 06:20:59;;;;;;;3.55;3.22;;;5.20;99.90;;;;;;4975758;28;20411;-48
2022/12/06 06:23:25;;;;;;;3.38;3.03;;;5.10;99.90;;;;;;4975098;28;20411;-49
2022/12/06 06:25:52;;;;;;;3.67;3.28;;;5.00;99.90;;;;;;4975828;28;20517;-48
2022/12/06 06:28:17;;;;;;;4.78;3.80;;;5.00;99.90;;;;;;4974690;28;20031;-46
2022/12/06 06:30:44;;;;;;;4.00;3.60;;;5.00;99.90;;;;;;4975912;28;20057;-55
2022/12/06 06:33:09;;;;;;;4.35;3.60;;;5.00;99.90;;;;;;4974840;28;20034;-49
2022/12/06 06:35:36;;;;;;;5.35;4.18;;;5.00;99.90;;;;;;4975294;28;20023;-50
2022/12/06 06:38:02;;;;;;;4.85;4.28;;;5.00;99.90;;;;;;4975468;28;20026;-47
2022/12/06 06:40:28;;;;;;;5.85;4.85;;;5.00;99.90;;;;;;4975244;28;20085;-49
2022/12/06 06:42:54;;;;;;;4.15;3.75;;;5.00;99.90;;;;;;4974573;28;20023;-51
2022/12/06 06:45:20;;;;;;;4.30;3.75;;;5.00;99.90;;;;;;4974208;28;20026;-47
2022/12/06 06:47:45;;;;;;;6.65;4.03;;;4.90;99.90;;;;;;4975518;28;20487;-50
2022/12/06 06:50:11;;;;;;;5.45;4.78;;;4.80;99.90;;;;;;4975401;28;20030;-51
2022/12/06 06:52:37;;;;;;;5.45;4.35;;;4.80;99.90;;;;;;4989335;28;20027;-54
2022/12/06 06:55:03;;;;;;;5.82;4.32;;;4.80;99.90;;;;;;4974966;28;20491;-52
2022/12/06 06:57:28;;;;;;;5.32;4.63;;;4.80;99.90;;;;;;4974720;28;20027;-49
2022/12/06 06:59:55;;;;;;;5.30;4.57;;;4.80;99.90;;;;;;4974780;28;20501;-52
2022/12/06 07:02:20;;;;;;;5.45;4.45;;;4.80;99.90;;;;;;4974182;28;20057;-50
2022/12/06 07:04:46;;;;;;;4.93;4.32;;;4.90;99.90;;;;;;4989726;28;20052;-52
2022/12/06 07:07:12;;;;;;;5.22;4.40;;;4.80;99.90;;;;;;4974535;28;20037;-51
2022/12/06 07:09:38;;;;;;;7.75;4.50;;;4.80;99.90;;;;;;4974585;28;20022;-50
2022/12/06 07:12:03;;;;;;;4.82;4.32;;;4.80;99.90;;;;;;4973886;28;20479;-51
2022/12/06 07:14:29;;;;;;;6.15;4.85;;;4.80;99.90;;;;;;4974629;28;20046;-49
2022/12/06 07:16:55;;;;;;;4.60;3.97;;;4.90;99.90;;;;;;4974631;28;20023;-51
2022/12/06 07:19:20;;;;;;;6.93;5.25;;;4.90;99.90;;;;;;4974308;28;20085;-52
2022/12/06 07:21:46;;;;;;;5.22;4.72;;;4.90;99.90;;;;;;4974266;28;20587;-48
2022/12/06 07:24:12;;;;;;;4.40;3.97;;;4.90;99.90;;;;;;4974315;28;20022;-50
2022/12/06 07:26:37;;;;;;;7.43;4.20;;;4.80;99.90;;;;;;4973041;28;20083;-48
2022/12/06 07:29:03;;;;;;;5.22;4.53;;;4.90;99.90;;;;;;4974130;28;20535;-48
2022/12/06 07:31:29;;;;;;;4.78;4.25;;;4.90;99.90;;;;;;4976651;23;20086;-52
2022/12/06 07:33:57;;;;;;;5.20;3.75;;;4.90;99.90;;;;;;4954423;29;20019;-49
2022/12/06 07:36:23;;;;;;;4.38;3.97;;;5.00;99.90;;;;;;4954841;28;20057;-51
2022/12/06 07:38:51;;;;;;;4.35;3.95;;;5.00;99.90;;;;;;4954886;28;20031;-49
2022/12/06 07:46:48;;;;;;;6.32;4.65;;;5.00;99.90;;;;;;4953639;29;20086;-54
2022/12/06 07:49:16;;;;;;;4.63;4.18;;;4.90;99.90;;;;;;4954569;28;20049;-50
2022/12/06 07:51:45;;;;;;;4.97;3.88;;;5.00;99.90;;;;;;4954397;28;20260;-51
2022/12/06 07:54:12;;;;;;;4.55;3.75;;;4.90;99.90;;;;;;4953793;28;20039;-52
2022/12/06 07:56:38;;;;;;;8.18;4.25;;;4.90;99.90;;;;;;4953334;28;20545;-52
2022/12/06 07:59:03;;;;;;;4.30;3.90;;;5.00;99.90;;;;;;4954480;28;20032;-52
2022/12/06 08:01:29;;;;;;;4.47;4.07;;;5.00;99.90;;;;;;4954485;28;20024;-51
2022/12/06 08:03:55;;;;;;;5.18;4.68;;;4.90;99.90;;;;;;4953568;28;20023;-52
2022/12/06 08:06:21;;;;;;;4.18;3.78;;;5.00;99.90;;;;;;4954190;28;20027;-56
2022/12/06 08:08:47;;;;;;;3.75;3.45;;;5.00;99.90;;;;;;4954998;28;20034;-52
2022/12/06 08:11:12;;;;;;;4.43;4.03;;;5.00;99.90;;;;;;4954281;28;20103;-51
2022/12/06 08:13:38;;;;;;;4.53;4.13;;;5.10;99.90;;;;;;4953579;28;20447;-53
2022/12/06 08:16:09;;;;;;;4.82;4.35;;;5.10;99.90;;;;;;4954253;29;20483;-52
2022/12/06 08:18:36;;;;;;;4.90;4.40;;;5.00;99.90;;;;;;4954010;28;20066;-53
2022/12/06 08:21:01;;;;;;;6.40;4.55;;;5.00;99.90;;;;;;4953998;28;20030;-49
2022/12/06 08:23:27;;;;;;;9.43;4.05;;;5.00;99.90;;;;;;4952062;29;20035;-49
2022/12/06 08:26:01;;;;;;;6.45;4.80;;;5.10;99.90;;;;;;4954123;28;20394;-52
2022/12/06 08:28:31;;;;;;;4.78;4.28;;;5.00;99.90;;;;;;4954022;28;20074;-51
2022/12/06 08:30:57;;;;;;;4.45;4.05;;;5.10;99.90;;;;;;4953668;28;20301;-53
2022/12/06 08:33:22;;;;;;;5.95;4.45;;;5.20;99.90;;;;;;4953967;29;20095;-56
2022/12/06 08:35:49;;;;;;;4.43;4.03;;;5.10;99.90;;;;;;4954354;28;20019;-53
2022/12/06 08:38:15;;;;;;;4.50;4.10;;;5.10;99.90;;;;;;4952876;28;20089;-54
2022/12/06 08:40:41;;;;;;;5.07;4.15;;;5.10;99.90;;;;;;4953669;28;20027;-52
2022/12/06 08:43:06;;;;;;;4.88;4.30;;;5.10;99.90;;;;;;4952781;29;20543;-52
2022/12/06 08:45:33;;;;;;;5.10;4.63;;;5.10;99.90;;;;;;4951721;28;20038;-50
2022/12/06 08:47:59;;;;;;;5.25;4.55;;;5.10;99.90;;;;;;4953729;28;20019;-55
2022/12/06 08:50:25;;;;;;;4.82;4.32;;;5.10;99.90;;;;;;4953601;28;20027;-55
2022/12/06 08:52:50;;;;;;;4.70;4.20;;;5.10;99.90;;;;;;4952961;29;20038;-53
2022/12/06 08:55:16;;;;;;;5.05;4.55;;;5.10;99.90;;;;;;4953645;28;20475;-51
2022/12/06 08:57:41;;;;;;;6.43;4.43;;;5.10;99.90;;;;;;4953419;28;20038;-49
2022/12/06 09:00:08;;;;;;;4.63;4.10;;;5.10;99.90;;;;;;4953317;28;20487;-54
2022/12/06 09:02:34;;;;;;;9.07;4.22;;;5.10;99.90;;;;;;4952690;28;20027;-50
2022/12/06 09:04:59;;;;;;;4.50;3.90;;;5.10;99.90;;;;;;4950957;28;20495;-58
2022/12/06 09:07:25;;;;;;;4.43;4.03;;;5.30;99.90;;;;;;4953405;29;20027;-51
2022/12/06 09:09:54;;;;;;;5.13;3.90;;;5.30;99.90;;;;;;4954682;28;20027;-52
2022/12/06 09:12:19;;;;;;;5.38;4.65;;;5.30;99.90;;;;;;4961188;28;20114;-55
2022/12/06 09:14:45;;;;;;;5.45;4.55;;;5.30;99.90;;;;;;4953750;29;20051;-50
2022/12/06 09:17:10;;;;;;;5.22;4.10;;;5.30;99.90;;;;;;4968055;28;20066;-55
2022/12/06 09:19:36;;;;;;;4.78;4.25;;;5.40;99.90;;;;;;4953007;28;20035;-55
2022/12/06 09:22:02;;;;;;;4.93;4.35;;;5.40;99.90;;;;;;4957946;28;20106;-54
2022/12/06 09:24:27;;;;;;;5.68;4.18;;;5.40;99.90;;;;;;4951326;28;20487;-50
2022/12/06 09:26:53;;;;;;;5.10;4.40;;;5.40;99.90;;;;;;4953419;29;20024;-53
2022/12/06 09:29:18;;;;;;;10.25;4.20;;;5.30;99.90;;;;;;4953654;29;20023;-55
2022/12/06 09:31:44;;;;;;;4.28;3.90;;;5.40;99.90;;;;;;4955735;29;20127;-48
2022/12/06 09:34:11;;;;;;;4.18;3.72;;;5.40;99.90;;;;;;4956292;29;20054;-52
2022/12/06 09:36:54;;;;;;;4.65;4.20;;;5.40;99.90;;;;;;4952347;28;20035;-53
2022/12/06 09:39:25;;;;;;;4.55;3.80;;;5.50;99.90;;;;;;4958480;28;20031;-53
2022/12/06 09:42:23;;;;;;;4.85;4.07;;;5.60;99.90;;;;;;4977249;28;20130;-51
2022/12/06 09:45:08;;;;;;;4.40;4.00;;;5.60;99.90;;;;;;4953320;28;20023;-50
2022/12/06 09:47:40;;;;;;;6.60;4.90;;;5.60;99.90;;;;;;4952894;28;20031;-50
2022/12/06 09:50:21;;;;;;;4.68;3.72;;;5.60;99.90;;;;;;4955152;28;20078;-55
2022/12/06 09:52:49;;;;;;;8.23;4.28;;;5.60;99.90;;;;;;4956323;28;20038;-54
2022/12/06 09:55:45;;;;;;;6.38;4.25;;;5.50;99.90;;;;;;4957881;28;20035;-54
2022/12/06 09:58:35;;;;;;;4.25;3.85;;;5.50;99.90;;;;;;4965795;28;20026;-54
2022/12/06 10:01:21;;;;;;;4.72;4.05;;;5.50;99.90;;;;;;4943821;29;20085;-52
2022/12/06 10:04:17;;;;;;;4.97;3.90;;;5.60;99.90;;;;;;4955860;28;20035;-51
2022/12/06 10:07:01;;;;;;;5.13;4.13;;;5.60;99.90;;;;;;4956523;28;20118;-48
2022/12/06 10:09:49;;;;;;;3.97;3.53;;;5.70;99.90;;;;;;4956727;28;20263;-50
2022/12/06 10:12:24;;;;;;;6.43;3.50;;;5.80;99.90;;;;;;4955874;28;20059;-46
2022/12/06 10:15:08;;;;;;;3.70;3.40;;;5.80;99.90;;;;;;4970696;28;20495;-48
2022/12/06 10:18:00;;;;;;;3.67;3.20;;;5.80;99.90;;;;;;4971377;28;20043;-53
2022/12/06 10:20:37;;;;;;;4.38;3.50;;;5.80;99.90;;;;;;4956356;28;20407;-52
2022/12/06 10:23:21;;;;;;;3.47;3.13;;;5.90;99.90;;;;;;4953782;28;20034;-54
2022/12/06 10:26:12;;;;;;;4.22;2.97;;;6.00;99.90;;;;;;4956247;29;20481;-52
2022/12/06 10:28:47;;;;;;;3.28;3.00;;;6.10;99.90;;;;;;4954397;28;20031;-48
2022/12/06 10:31:26;;;;;;;3.20;2.90;;;6.20;99.90;;;;;;4955790;28;20129;-51
2022/12/06 10:33:56;;;;;;;3.65;3.35;;;6.30;99.90;;;;;;4955263;28;20039;-52
2022/12/06 10:36:35;;;;;;;3.83;3.03;;;6.30;99.90;;;;;;4956293;29;20078;-53
2022/12/06 10:39:18;;;;;;;3.80;3.20;;;6.30;99.90;;;;;;4955066;28;20032;-50
2022/12/06 10:41:57;;;;;;;3.25;2.97;;;6.30;99.90;;;;;;4967575;28;20023;-54
2022/12/06 10:44:34;;;;;;;3.30;3.00;;;6.40;99.90;;;;;;4961796;28;20019;-53
2022/12/06 10:47:03;;;;;;;3.35;3.00;;;6.40;99.90;;;;;;4957628;28;20060;-50
2022/12/06 10:49:52;;;;;;;3.20;2.95;;;6.50;99.90;;;;;;4959486;28;20091;-54
2022/12/06 10:52:39;;;;;;;4.38;3.10;;;6.60;99.90;;;;;;4960355;28;20386;-52
2022/12/06 10:55:17;;;;;;;4.97;3.00;;;6.60;99.90;;;;;;4957390;28;20391;-50
2022/12/06 10:57:51;;;;;;;3.60;3.30;;;6.60;99.90;;;;;;4956089;28;20019;-54
2022/12/06 11:00:21;;;;;;;3.00;2.80;;;6.60;99.90;;;;;;4956193;28;20027;-55
2022/12/06 11:03:16;;;;;;;4.47;3.45;;;6.70;99.90;;;;;;4953367;29;20035;-53
2022/12/06 11:05:55;;;;;;;4.30;3.25;;;6.70;99.90;;;;;;4951482;28;20022;-50
2022/12/06 11:08:23;;;;;;;3.50;3.20;;;6.60;99.90;;;;;;4970022;28;20038;-53
2022/12/06 11:10:50;;;;;;;3.72;3.25;;;6.70;99.90;;;;;;4954916;28;20071;-50
2022/12/06 11:13:37;;;;;;;3.35;3.05;;;6.70;99.90;;;;;;4954371;28;20376;-51
2022/12/06 11:16:06;;;;;;;3.55;3.03;;;6.80;99.90;;;;;;4954072;28;20030;-49
2022/12/06 11:18:32;;;;;;;3.50;3.20;;;6.80;99.90;;;;;;4958915;28;20035;-50
2022/12/06 11:21:14;;;;;;;3.63;3.25;;;6.80;99.90;;;;;;4960559;28;20062;-51
2022/12/06 11:24:00;;;;;;;3.00;2.72;;;6.80;99.90;;;;;;4955909;28;20034;-52
2022/12/06 11:26:46;;;;;;;3.35;3.15;;;6.80;99.90;;;;;;4958928;28;20413;-50
2022/12/06 11:29:13;;;;;;;4.78;2.97;;;6.90;99.90;;;;;;4970365;28;20031;-51
2022/12/06 11:31:49;;;;;;;3.33;3.03;;;6.90;99.90;;;;;;4954063;28;20586;-51
2022/12/06 11:34:19;;;;;;;;;;;6.80;99.90;;;;;;4954584;28;20032;-52
2022/12/06 11:36:47;;;;;;;3.35;3.05;;;6.80;99.90;;;;;;4960941;28;20401;-54
2022/12/06 11:39:14;;;;;;;2.83;2.63;;;6.70;99.90;;;;;;4970722;28;20122;-57
2022/12/06 11:41:42;;;;;;;4.90;3.03;;;6.70;99.90;;;;;;4971433;28;20030;-53
2022/12/06 11:44:13;;;;;;;4.90;3.72;;;6.70;99.90;;;;;;4972598;28;20042;-55
2022/12/06 11:46:39;;;;;;;4.93;3.53;;;6.80;99.90;;;;;;4974017;28;20399;-56
2022/12/06 11:49:20;;;;;;;6.00;3.35;;;6.80;99.90;;;;;;4954505;28;20031;-56
2022/12/06 11:51:45;;;;;;;4.07;3.65;;;6.80;99.90;;;;;;4952830;28;20035;-52
2022/12/06 11:54:19;;;;;;;3.47;3.17;;;6.90;99.90;;;;;;4953201;29;20042;-48
2022/12/06 11:56:45;;;;;;;4.07;3.13;;;7.00;99.90;;;;;;4956480;28;20027;-51
2022/12/06 11:59:21;;;;;;;3.55;3.28;;;6.90;99.90;;;;;;4987100;28;20125;-50
2022/12/06 12:01:49;;;;;;;3.90;3.38;;;6.80;99.90;;;;;;4965990;28;20137;-49
2022/12/06 12:04:23;;;;;;;3.67;3.33;;;6.70;99.90;;;;;;4969966;28;20058;-52
2022/12/06 12:07:16;;;;;;;3.78;3.47;;;6.70;99.90;;;;;;4971223;28;20062;-52
2022/12/06 12:09:47;;;;;;;3.65;3.35;;;6.60;99.90;;;;;;4942522;29;20039;-50
2022/12/06 12:12:16;;;;;;;4.68;3.50;;;6.60;99.90;;;;;;4934041;29;20422;-51
2022/12/06 12:14:43;;;;;;;3.28;2.97;;;6.60;99.90;;;;;;4933608;29;20019;-52
2022/12/06 12:17:22;;;;;;;3.28;2.97;;;6.60;99.90;;;;;;4933218;29;20365;-54
2022/12/06 12:20:04;;;;;;;2.95;2.75;;;6.60;99.90;;;;;;4933475;29;20039;-55
2022/12/06 12:22:38;;;;;;;3.72;3.15;;;6.60;99.90;;;;;;4934268;29;20024;-53
2022/12/06 12:25:26;;;;;;;4.88;3.20;;;6.60;99.90;;;;;;4935034;29;20071;-57
2022/12/06 12:27:56;;;;;;;3.30;3.00;;;6.70;99.90;;;;;;4934529;29;20560;-57
2022/12/06 12:30:31;;;;;;;4.05;3.40;;;6.70;99.90;;;;;;4934457;29;20040;-53
2022/12/06 12:33:06;;;;;;;4.70;3.28;;;6.70;99.90;;;;;;4948499;28;20027;-60
2022/12/06 12:35:37;;;;;;;5.00;3.28;;;6.70;99.90;;;;;;4934895;28;20036;-58
2022/12/06 12:38:11;;;;;;;3.75;3.42;;;6.60;99.90;;;;;;4934365;29;20032;-55
2022/12/06 12:40:41;;;;;;;3.72;3.20;;;6.60;99.90;;;;;;4953590;28;20039;-50
2022/12/06 12:43:25;;;;;;;3.35;3.08;;;6.70;99.90;;;;;;4952662;28;20483;-57
2022/12/06 12:46:16;;;;;;;3.95;3.42;;;6.70;99.90;;;;;;4953724;28;20027;-52
2022/12/06 12:48:43;;;;;;;4.28;3.30;;;6.70;99.90;;;;;;4953179;28;20488;-54
2022/12/06 12:51:46;;;;;;;3.22;2.88;;;6.80;99.90;;;;;;4956009;28;20061;-56
2022/12/06 12:54:25;;;;;;;3.15;2.95;;;6.80;99.90;;;;;;4954391;29;20565;-55
2022/12/06 12:56:51;;;;;;;3.20;3.00;;;6.80;99.90;;;;;;4949996;29;20019;-56
2022/12/06 12:59:23;;;;;;;3.22;2.92;;;6.80;99.90;;;;;;4952971;29;20039;-54
2022/12/06 13:02:01;;;;;;;3.25;2.92;;;6.80;99.90;;;;;;4953208;28;20098;-54
2022/12/06 13:04:45;;;;;;;5.03;3.40;;;6.80;99.90;;;;;;4952946;28;20059;-52
2022/12/06 13:07:17;;;;;;;3.80;3.25;;;6.80;99.90;;;;;;4953657;29;20055;-54
2022/12/06 13:09:53;;;;;;;4.22;3.50;;;6.90;99.90;;;;;;4953183;28;20065;-47
2022/12/06 13:12:24;;;;;;;3.55;3.20;;;6.90;99.90;;;;;;4933342;29;20030;-49
2022/12/06 13:15:01;;;;;;;3.53;3.20;;;6.90;99.90;;;;;;4934624;29;20575;-50
2022/12/06 13:17:31;;;;;;;3.90;3.50;;;6.90;99.90;;;;;;4942920;29;20035;-49
2022/12/06 13:19:56;;;;;;;3.88;3.55;;;6.90;99.90;;;;;;4951477;29;20038;-51
2022/12/06 13:22:26;;;;;;;3.42;3.13;;;6.90;99.90;;;;;;4951184;29;20027;-51
2022/12/06 13:25:06;;;;;;;3.47;3.17;;;6.90;99.90;;;;;;4956998;28;20023;-51
2022/12/06 13:27:38;;;;;;;4.45;3.97;;;6.90;99.90;;;;;;4955881;29;20500;-53
2022/12/06 13:32:41;;;;;;;5.30;3.50;;;7.00;99.90;;;;;;4954399;28;20047;-48
2022/12/06 13:35:26;;;;;;;3.95;3.55;;;7.10;99.90;;;;;;4958275;28;20027;-47
2022/12/06 13:37:57;;;;;;;3.70;3.33;;;7.10;99.90;;;;;;4958109;29;20476;-46
2022/12/06 13:40:32;;;;;;;3.88;3.22;;;7.00;99.90;;;;;;4976329;28;20031;-47
2022/12/06 13:43:22;;;;;;;3.70;2.83;;;7.00;99.90;;;;;;4960608;28;20035;-48
2022/12/06 13:45:52;;;;;;;3.40;3.13;;;7.00;99.90;;;;;;4962271;28;20278;-47
2022/12/06 13:48:23;;;;;;;3.63;3.33;;;6.90;99.90;;;;;;4962331;29;20023;-49